sensor_id;sensor_type;location;lat;lon;timestamp;P1;durP1;ratioP1;P2;durP2;ratioP2
7525;SDS011;3804;50.860;6.208;2023-05-07T00:00:21;8.43;;;6.60;;
7525;SDS011;3804;50.860;6.208;2023-05-07T00:02:48;7.23;;;6.30;;
7525;SDS011;3804;50.860;6.208;2023-05-07T00:05:15;7.33;;;6.33;;
7525;SDS011;3804;50.860;6.208;2023-05-07T00:07:42;7.70;;;6.60;;
7525;SDS011;3804;50.860;6.208;2023-05-07T00:10:09;6.87;;;5.80;;
7525;SDS011;3804;50.860;6.208;2023-05-07T00:12:37;7.07;;;5.93;;
7525;SDS011;3804;50.860;6.208;2023-05-07T00:15:04;8.40;;;6.47;;
7525;SDS011;3804;50.860;6.208;2023-05-07T00:17:33;10.10;;;6.77;;
7525;SDS011;3804;50.860;6.208;2023-05-07T00:20:00;8.87;;;5.90;;
7525;SDS011;3804;50.860;6.208;2023-05-07T00:22:27;6.97;;;6.30;;
7525;SDS011;3804;50.860;6.208;2023-05-07T00:24:56;7.73;;;6.10;;
7525;SDS011;3804;50.860;6.208;2023-05-07T00:27:24;7.33;;;5.77;;
7525;SDS011;3804;50.860;6.208;2023-05-07T00:29:51;9.90;;;5.27;;
7525;SDS011;3804;50.860;6.208;2023-05-07T00:32:18;7.23;;;5.37;;
7525;SDS011;3804;50.860;6.208;2023-05-07T00:34:44;7.03;;;5.30;;
7525;SDS011;3804;50.860;6.208;2023-05-07T00:37:11;9.37;;;5.27;;
7525;SDS011;3804;50.860;6.208;2023-05-07T00:39:38;9.07;;;5.57;;
7525;SDS011;3804;50.860;6.208;2023-05-07T00:42:05;5.63;;;5.10;;
7525;SDS011;3804;50.860;6.208;2023-05-07T00:44:32;8.47;;;5.10;;
7525;SDS011;3804;50.860;6.208;2023-05-07T00:46:59;8.97;;;5.50;;
7525;SDS011;3804;50.860;6.208;2023-05-07T00:49:32;8.37;;;5.20;;
7525;SDS011;3804;50.860;6.208;2023-05-07T00:52:02;6.33;;;5.00;;
7525;SDS011;3804;50.860;6.208;2023-05-07T00:54:29;5.70;;;5.10;;
7525;SDS011;3804;50.860;6.208;2023-05-07T00:56:56;6.67;;;4.97;;
7525;SDS011;3804;50.860;6.208;2023-05-07T00:59:23;6.67;;;5.00;;
7525;SDS011;3804;50.860;6.208;2023-05-07T01:01:50;7.70;;;5.30;;
7525;SDS011;3804;50.860;6.208;2023-05-07T01:04:17;8.97;;;4.93;;
7525;SDS011;3804;50.860;6.208;2023-05-07T01:06:44;5.63;;;5.03;;
7525;SDS011;3804;50.860;6.208;2023-05-07T01:09:12;5.57;;;5.07;;
7525;SDS011;3804;50.860;6.208;2023-05-07T01:11:39;6.83;;;5.53;;
7525;SDS011;3804;50.860;6.208;2023-05-07T01:14:08;7.00;;;5.23;;
7525;SDS011;3804;50.860;6.208;2023-05-07T01:16:36;5.17;;;4.70;;
7525;SDS011;3804;50.860;6.208;2023-05-07T01:19:03;6.43;;;5.03;;
7525;SDS011;3804;50.860;6.208;2023-05-07T01:21:31;6.33;;;5.13;;
7525;SDS011;3804;50.860;6.208;2023-05-07T01:23:59;5.77;;;5.00;;
7525;SDS011;3804;50.860;6.208;2023-05-07T01:26:27;5.30;;;4.80;;
7525;SDS011;3804;50.860;6.208;2023-05-07T01:28:54;7.30;;;5.13;;
7525;SDS011;3804;50.860;6.208;2023-05-07T01:31:20;8.20;;;5.53;;
7525;SDS011;3804;50.860;6.208;2023-05-07T01:33:48;6.77;;;4.97;;
7525;SDS011;3804;50.860;6.208;2023-05-07T01:36:16;5.53;;;5.03;;
7525;SDS011;3804;50.860;6.208;2023-05-07T01:38:43;6.67;;;5.47;;
7525;SDS011;3804;50.860;6.208;2023-05-07T01:41:12;5.67;;;5.07;;
7525;SDS011;3804;50.860;6.208;2023-05-07T01:43:40;6.83;;;5.60;;
7525;SDS011;3804;50.860;6.208;2023-05-07T01:46:08;5.90;;;5.03;;
7525;SDS011;3804;50.860;6.208;2023-05-07T01:48:37;7.03;;;5.20;;
7525;SDS011;3804;50.860;6.208;2023-05-07T01:51:04;8.57;;;5.77;;
7525;SDS011;3804;50.860;6.208;2023-05-07T01:53:35;9.40;;;5.80;;
7525;SDS011;3804;50.860;6.208;2023-05-07T01:56:02;6.40;;;5.73;;
7525;SDS011;3804;50.860;6.208;2023-05-07T01:58:30;8.33;;;6.60;;
7525;SDS011;3804;50.860;6.208;2023-05-07T02:00:56;7.37;;;6.53;;
7525;SDS011;3804;50.860;6.208;2023-05-07T02:03:23;10.33;;;6.50;;
7525;SDS011;3804;50.860;6.208;2023-05-07T02:05:57;9.57;;;6.80;;
7525;SDS011;3804;50.860;6.208;2023-05-07T02:08:32;7.30;;;5.77;;
7525;SDS011;3804;50.860;6.208;2023-05-07T02:10:59;7.07;;;6.00;;
7525;SDS011;3804;50.860;6.208;2023-05-07T02:13:28;7.70;;;6.73;;
7525;SDS011;3804;50.860;6.208;2023-05-07T02:15:55;6.87;;;5.93;;
7525;SDS011;3804;50.860;6.208;2023-05-07T02:18:23;8.17;;;6.83;;
7525;SDS011;3804;50.860;6.208;2023-05-07T02:20:50;9.30;;;6.53;;
7525;SDS011;3804;50.860;6.208;2023-05-07T02:23:17;8.70;;;7.00;;
7525;SDS011;3804;50.860;6.208;2023-05-07T02:25:44;9.87;;;7.30;;
7525;SDS011;3804;50.860;6.208;2023-05-07T02:28:11;7.37;;;6.57;;
7525;SDS011;3804;50.860;6.208;2023-05-07T02:30:48;11.80;;;7.07;;
7525;SDS011;3804;50.860;6.208;2023-05-07T02:33:15;9.73;;;7.33;;
7525;SDS011;3804;50.860;6.208;2023-05-07T02:35:42;9.83;;;6.70;;
7525;SDS011;3804;50.860;6.208;2023-05-07T02:38:11;8.77;;;7.23;;
7525;SDS011;3804;50.860;6.208;2023-05-07T02:40:39;10.57;;;7.30;;
7525;SDS011;3804;50.860;6.208;2023-05-07T02:43:06;13.93;;;7.10;;
7525;SDS011;3804;50.860;6.208;2023-05-07T02:45:34;7.43;;;6.63;;
7525;SDS011;3804;50.860;6.208;2023-05-07T02:48:03;8.57;;;6.60;;
7525;SDS011;3804;50.860;6.208;2023-05-07T02:50:30;8.13;;;7.10;;
7525;SDS011;3804;50.860;6.208;2023-05-07T02:52:56;8.70;;;6.50;;
7525;SDS011;3804;50.860;6.208;2023-05-07T02:55:23;12.00;;;7.47;;
7525;SDS011;3804;50.860;6.208;2023-05-07T02:57:50;9.57;;;7.03;;
7525;SDS011;3804;50.860;6.208;2023-05-07T03:00:17;8.07;;;7.27;;
7525;SDS011;3804;50.860;6.208;2023-05-07T03:02:53;9.53;;;6.87;;
7525;SDS011;3804;50.860;6.208;2023-05-07T03:05:19;9.83;;;7.50;;
7525;SDS011;3804;50.860;6.208;2023-05-07T03:07:46;9.17;;;7.60;;
7525;SDS011;3804;50.860;6.208;2023-05-07T03:10:14;8.53;;;7.13;;
7525;SDS011;3804;50.860;6.208;2023-05-07T03:12:41;9.60;;;7.33;;
7525;SDS011;3804;50.860;6.208;2023-05-07T03:15:10;7.30;;;6.20;;
7525;SDS011;3804;50.860;6.208;2023-05-07T03:17:40;9.27;;;7.13;;
7525;SDS011;3804;50.860;6.208;2023-05-07T03:20:07;14.10;;;9.23;;
7525;SDS011;3804;50.860;6.208;2023-05-07T03:22:37;16.00;;;11.57;;
7525;SDS011;3804;50.860;6.208;2023-05-07T03:25:04;16.93;;;11.40;;
7525;SDS011;3804;50.860;6.208;2023-05-07T03:27:31;18.43;;;11.87;;
7525;SDS011;3804;50.860;6.208;2023-05-07T03:29:58;19.23;;;12.20;;
7525;SDS011;3804;50.860;6.208;2023-05-07T03:32:25;19.17;;;12.60;;
7525;SDS011;3804;50.860;6.208;2023-05-07T03:34:52;20.43;;;11.57;;
7525;SDS011;3804;50.860;6.208;2023-05-07T03:37:19;18.40;;;12.07;;
7525;SDS011;3804;50.860;6.208;2023-05-07T03:39:48;18.70;;;11.43;;
7525;SDS011;3804;50.860;6.208;2023-05-07T03:42:15;17.17;;;11.50;;
7525;SDS011;3804;50.860;6.208;2023-05-07T03:44:42;22.47;;;12.80;;
7525;SDS011;3804;50.860;6.208;2023-05-07T03:47:09;24.90;;;12.40;;
7525;SDS011;3804;50.860;6.208;2023-05-07T03:49:37;19.90;;;12.07;;
7525;SDS011;3804;50.860;6.208;2023-05-07T03:52:05;21.47;;;12.77;;
7525;SDS011;3804;50.860;6.208;2023-05-07T03:54:32;21.20;;;12.33;;
7525;SDS011;3804;50.860;6.208;2023-05-07T03:56:59;21.93;;;12.70;;
7525;SDS011;3804;50.860;6.208;2023-05-07T03:59:26;19.53;;;11.43;;
7525;SDS011;3804;50.860;6.208;2023-05-07T04:01:54;20.37;;;10.70;;
7525;SDS011;3804;50.860;6.208;2023-05-07T04:04:23;20.50;;;11.03;;
7525;SDS011;3804;50.860;6.208;2023-05-07T04:06:50;14.43;;;10.87;;
7525;SDS011;3804;50.860;6.208;2023-05-07T04:09:17;24.47;;;12.83;;
7525;SDS011;3804;50.860;6.208;2023-05-07T04:11:46;20.93;;;11.77;;
7525;SDS011;3804;50.860;6.208;2023-05-07T04:14:13;19.57;;;11.53;;
7525;SDS011;3804;50.860;6.208;2023-05-07T04:16:40;19.30;;;12.03;;
7525;SDS011;3804;50.860;6.208;2023-05-07T04:19:07;17.43;;;11.33;;
7525;SDS011;3804;50.860;6.208;2023-05-07T04:21:35;18.27;;;10.80;;
7525;SDS011;3804;50.860;6.208;2023-05-07T04:24:02;16.00;;;9.80;;
7525;SDS011;3804;50.860;6.208;2023-05-07T04:26:29;17.17;;;10.00;;
7525;SDS011;3804;50.860;6.208;2023-05-07T04:28:57;15.43;;;9.87;;
7525;SDS011;3804;50.860;6.208;2023-05-07T04:31:31;15.20;;;9.80;;
7525;SDS011;3804;50.860;6.208;2023-05-07T04:33:58;13.47;;;9.20;;
7525;SDS011;3804;50.860;6.208;2023-05-07T04:36:26;14.33;;;9.13;;
7525;SDS011;3804;50.860;6.208;2023-05-07T04:39:02;12.97;;;8.10;;
7525;SDS011;3804;50.860;6.208;2023-05-07T04:41:29;9.10;;;7.20;;
7525;SDS011;3804;50.860;6.208;2023-05-07T04:43:56;9.27;;;6.60;;
7525;SDS011;3804;50.860;6.208;2023-05-07T04:46:28;15.47;;;7.40;;
7525;SDS011;3804;50.860;6.208;2023-05-07T04:48:56;11.57;;;7.53;;
7525;SDS011;3804;50.860;6.208;2023-05-07T04:51:23;9.53;;;7.53;;
7525;SDS011;3804;50.860;6.208;2023-05-07T04:53:50;7.63;;;6.63;;
7525;SDS011;3804;50.860;6.208;2023-05-07T04:56:17;8.33;;;6.67;;
7525;SDS011;3804;50.860;6.208;2023-05-07T04:58:45;9.37;;;7.20;;
7525;SDS011;3804;50.860;6.208;2023-05-07T05:01:14;10.27;;;6.70;;
7525;SDS011;3804;50.860;6.208;2023-05-07T05:03:41;9.33;;;6.53;;
7525;SDS011;3804;50.860;6.208;2023-05-07T05:06:08;10.50;;;7.03;;
7525;SDS011;3804;50.860;6.208;2023-05-07T05:08:35;8.20;;;7.33;;
7525;SDS011;3804;50.860;6.208;2023-05-07T05:11:03;7.23;;;6.47;;
7525;SDS011;3804;50.860;6.208;2023-05-07T05:13:32;6.87;;;6.13;;
7525;SDS011;3804;50.860;6.208;2023-05-07T05:16:03;11.50;;;6.30;;
7525;SDS011;3804;50.860;6.208;2023-05-07T05:18:31;7.70;;;6.43;;
7525;SDS011;3804;50.860;6.208;2023-05-07T05:20:58;7.67;;;6.17;;
7525;SDS011;3804;50.860;6.208;2023-05-07T05:23:25;7.17;;;5.37;;
7525;SDS011;3804;50.860;6.208;2023-05-07T05:25:55;7.00;;;5.57;;
7525;SDS011;3804;50.860;6.208;2023-05-07T05:28:25;6.00;;;5.50;;
7525;SDS011;3804;50.860;6.208;2023-05-07T05:30:52;6.93;;;5.47;;
7525;SDS011;3804;50.860;6.208;2023-05-07T05:33:19;6.00;;;5.40;;
7525;SDS011;3804;50.860;6.208;2023-05-07T05:35:46;7.30;;;4.93;;
7525;SDS011;3804;50.860;6.208;2023-05-07T05:38:13;6.00;;;4.93;;
7525;SDS011;3804;50.860;6.208;2023-05-07T05:40:40;4.70;;;4.30;;
7525;SDS011;3804;50.860;6.208;2023-05-07T05:43:07;6.07;;;4.13;;
7525;SDS011;3804;50.860;6.208;2023-05-07T05:45:36;5.03;;;4.20;;
7525;SDS011;3804;50.860;6.208;2023-05-07T05:48:04;4.60;;;4.13;;
7525;SDS011;3804;50.860;6.208;2023-05-07T05:50:32;4.70;;;3.97;;
7525;SDS011;3804;50.860;6.208;2023-05-07T05:52:59;5.43;;;3.87;;
7525;SDS011;3804;50.860;6.208;2023-05-07T05:55:28;5.13;;;3.90;;
7525;SDS011;3804;50.860;6.208;2023-05-07T05:57:55;5.00;;;4.40;;
7525;SDS011;3804;50.860;6.208;2023-05-07T06:00:23;6.00;;;3.80;;
7525;SDS011;3804;50.860;6.208;2023-05-07T06:02:58;5.40;;;4.00;;
7525;SDS011;3804;50.860;6.208;2023-05-07T06:05:25;8.03;;;3.83;;
7525;SDS011;3804;50.860;6.208;2023-05-07T06:07:54;4.10;;;3.70;;
7525;SDS011;3804;50.860;6.208;2023-05-07T06:10:21;5.80;;;3.90;;
7525;SDS011;3804;50.860;6.208;2023-05-07T06:12:48;5.50;;;3.97;;
7525;SDS011;3804;50.860;6.208;2023-05-07T06:15:16;4.40;;;3.50;;
7525;SDS011;3804;50.860;6.208;2023-05-07T06:17:43;4.00;;;3.60;;
7525;SDS011;3804;50.860;6.208;2023-05-07T06:20:10;4.43;;;3.33;;
7525;SDS011;3804;50.860;6.208;2023-05-07T06:22:39;5.70;;;3.43;;
7525;SDS011;3804;50.860;6.208;2023-05-07T06:25:07;3.93;;;3.53;;
7525;SDS011;3804;50.860;6.208;2023-05-07T06:27:34;5.00;;;3.73;;
7525;SDS011;3804;50.860;6.208;2023-05-07T06:30:00;4.30;;;3.90;;
7525;SDS011;3804;50.860;6.208;2023-05-07T06:32:28;3.87;;;3.57;;
7525;SDS011;3804;50.860;6.208;2023-05-07T06:34:55;4.63;;;3.90;;
7525;SDS011;3804;50.860;6.208;2023-05-07T06:37:22;5.83;;;3.73;;
7525;SDS011;3804;50.860;6.208;2023-05-07T06:39:53;3.83;;;2.83;;
7525;SDS011;3804;50.860;6.208;2023-05-07T06:42:20;4.73;;;3.33;;
7525;SDS011;3804;50.860;6.208;2023-05-07T06:44:48;4.33;;;3.73;;
7525;SDS011;3804;50.860;6.208;2023-05-07T06:47:16;4.93;;;3.60;;
7525;SDS011;3804;50.860;6.208;2023-05-07T06:49:48;4.90;;;3.50;;
7525;SDS011;3804;50.860;6.208;2023-05-07T06:52:17;5.17;;;3.47;;
7525;SDS011;3804;50.860;6.208;2023-05-07T06:54:45;6.43;;;3.20;;
7525;SDS011;3804;50.860;6.208;2023-05-07T06:57:15;4.60;;;3.03;;
7525;SDS011;3804;50.860;6.208;2023-05-07T06:59:42;5.50;;;3.17;;
7525;SDS011;3804;50.860;6.208;2023-05-07T07:02:09;3.60;;;3.17;;
7525;SDS011;3804;50.860;6.208;2023-05-07T07:04:36;3.63;;;3.30;;
7525;SDS011;3804;50.860;6.208;2023-05-07T07:07:07;4.27;;;3.00;;
7525;SDS011;3804;50.860;6.208;2023-05-07T07:09:35;4.87;;;3.30;;
7525;SDS011;3804;50.860;6.208;2023-05-07T07:12:03;4.07;;;2.93;;
7525;SDS011;3804;50.860;6.208;2023-05-07T07:14:31;10.40;;;3.53;;
7525;SDS011;3804;50.860;6.208;2023-05-07T07:16:57;5.63;;;2.93;;
7525;SDS011;3804;50.860;6.208;2023-05-07T07:19:25;4.03;;;3.10;;
7525;SDS011;3804;50.860;6.208;2023-05-07T07:21:54;5.03;;;3.00;;
7525;SDS011;3804;50.860;6.208;2023-05-07T07:24:20;3.67;;;2.67;;
7525;SDS011;3804;50.860;6.208;2023-05-07T07:26:52;3.17;;;2.90;;
7525;SDS011;3804;50.860;6.208;2023-05-07T07:29:20;3.80;;;3.20;;
7525;SDS011;3804;50.860;6.208;2023-05-07T07:31:48;4.63;;;3.07;;
7525;SDS011;3804;50.860;6.208;2023-05-07T07:34:15;4.30;;;3.20;;
7525;SDS011;3804;50.860;6.208;2023-05-07T07:36:42;4.90;;;3.47;;
7525;SDS011;3804;50.860;6.208;2023-05-07T07:39:15;5.33;;;3.30;;
7525;SDS011;3804;50.860;6.208;2023-05-07T07:41:43;5.43;;;3.13;;
7525;SDS011;3804;50.860;6.208;2023-05-07T07:44:11;4.73;;;3.30;;
7525;SDS011;3804;50.860;6.208;2023-05-07T07:46:44;4.77;;;3.33;;
7525;SDS011;3804;50.860;6.208;2023-05-07T07:49:11;5.13;;;3.70;;
7525;SDS011;3804;50.860;6.208;2023-05-07T07:51:38;8.73;;;3.60;;
7525;SDS011;3804;50.860;6.208;2023-05-07T07:54:05;4.67;;;3.67;;
7525;SDS011;3804;50.860;6.208;2023-05-07T07:56:34;7.33;;;3.80;;
7525;SDS011;3804;50.860;6.208;2023-05-07T07:59:03;5.73;;;3.30;;
7525;SDS011;3804;50.860;6.208;2023-05-07T08:01:31;5.50;;;3.73;;
7525;SDS011;3804;50.860;6.208;2023-05-07T08:03:58;7.00;;;3.60;;
7525;SDS011;3804;50.860;6.208;2023-05-07T08:06:28;4.57;;;3.60;;
7525;SDS011;3804;50.860;6.208;2023-05-07T08:08:55;4.57;;;4.17;;
7525;SDS011;3804;50.860;6.208;2023-05-07T08:11:22;5.53;;;3.50;;
7525;SDS011;3804;50.860;6.208;2023-05-07T08:13:50;4.67;;;3.10;;
7525;SDS011;3804;50.860;6.208;2023-05-07T08:16:17;3.70;;;3.00;;
7525;SDS011;3804;50.860;6.208;2023-05-07T08:18:45;4.13;;;2.90;;
7525;SDS011;3804;50.860;6.208;2023-05-07T08:21:12;3.43;;;2.73;;
7525;SDS011;3804;50.860;6.208;2023-05-07T08:23:38;3.37;;;3.07;;
7525;SDS011;3804;50.860;6.208;2023-05-07T08:26:07;3.67;;;2.83;;
7525;SDS011;3804;50.860;6.208;2023-05-07T08:28:35;3.27;;;2.97;;
7525;SDS011;3804;50.860;6.208;2023-05-07T08:31:02;3.27;;;2.77;;
7525;SDS011;3804;50.860;6.208;2023-05-07T08:33:33;2.93;;;2.57;;
7525;SDS011;3804;50.860;6.208;2023-05-07T08:36:00;3.07;;;2.53;;
7525;SDS011;3804;50.860;6.208;2023-05-07T08:38:27;5.10;;;2.77;;
7525;SDS011;3804;50.860;6.208;2023-05-07T08:40:54;2.90;;;2.30;;
7525;SDS011;3804;50.860;6.208;2023-05-07T08:43:21;6.03;;;3.00;;
7525;SDS011;3804;50.860;6.208;2023-05-07T08:45:48;5.50;;;2.77;;
7525;SDS011;3804;50.860;6.208;2023-05-07T08:48:18;3.87;;;2.70;;
7525;SDS011;3804;50.860;6.208;2023-05-07T08:50:57;3.93;;;2.57;;
7525;SDS011;3804;50.860;6.208;2023-05-07T08:53:24;4.17;;;2.47;;
7525;SDS011;3804;50.860;6.208;2023-05-07T08:55:53;4.73;;;2.60;;
7525;SDS011;3804;50.860;6.208;2023-05-07T08:58:20;4.87;;;2.80;;
7525;SDS011;3804;50.860;6.208;2023-05-07T09:00:47;4.60;;;2.50;;
7525;SDS011;3804;50.860;6.208;2023-05-07T09:03:15;3.93;;;2.27;;
7525;SDS011;3804;50.860;6.208;2023-05-07T09:05:46;4.20;;;2.03;;
7525;SDS011;3804;50.860;6.208;2023-05-07T09:08:15;2.27;;;1.77;;
7525;SDS011;3804;50.860;6.208;2023-05-07T09:10:45;4.40;;;2.07;;
7525;SDS011;3804;50.860;6.208;2023-05-07T09:13:12;3.50;;;1.87;;
7525;SDS011;3804;50.860;6.208;2023-05-07T09:15:42;2.23;;;2.00;;
7525;SDS011;3804;50.860;6.208;2023-05-07T09:18:09;2.50;;;2.30;;
7525;SDS011;3804;50.860;6.208;2023-05-07T09:20:38;4.03;;;1.90;;
7525;SDS011;3804;50.860;6.208;2023-05-07T09:23:07;2.77;;;1.80;;
7525;SDS011;3804;50.860;6.208;2023-05-07T09:25:35;5.17;;;1.83;;
7525;SDS011;3804;50.860;6.208;2023-05-07T09:28:09;2.87;;;1.87;;
7525;SDS011;3804;50.860;6.208;2023-05-07T09:30:37;3.37;;;1.60;;
7525;SDS011;3804;50.860;6.208;2023-05-07T09:33:07;2.53;;;1.80;;
7525;SDS011;3804;50.860;6.208;2023-05-07T09:35:37;3.10;;;2.03;;
7525;SDS011;3804;50.860;6.208;2023-05-07T09:38:09;2.07;;;1.80;;
7525;SDS011;3804;50.860;6.208;2023-05-07T09:40:36;2.43;;;2.23;;
7525;SDS011;3804;50.860;6.208;2023-05-07T09:43:08;3.83;;;2.20;;
7525;SDS011;3804;50.860;6.208;2023-05-07T09:45:36;2.10;;;2.00;;
7525;SDS011;3804;50.860;6.208;2023-05-07T09:48:04;2.83;;;1.90;;
7525;SDS011;3804;50.860;6.208;2023-05-07T09:50:35;2.53;;;2.23;;
7525;SDS011;3804;50.860;6.208;2023-05-07T09:53:03;4.07;;;2.37;;
7525;SDS011;3804;50.860;6.208;2023-05-07T09:55:30;2.20;;;2.00;;
7525;SDS011;3804;50.860;6.208;2023-05-07T09:57:57;4.13;;;2.30;;
7525;SDS011;3804;50.860;6.208;2023-05-07T10:00:27;4.20;;;2.07;;
7525;SDS011;3804;50.860;6.208;2023-05-07T10:03:02;3.37;;;2.23;;
7525;SDS011;3804;50.860;6.208;2023-05-07T10:05:39;3.13;;;2.10;;
7525;SDS011;3804;50.860;6.208;2023-05-07T10:08:08;4.33;;;3.23;;
7525;SDS011;3804;50.860;6.208;2023-05-07T10:10:37;2.50;;;2.23;;
7525;SDS011;3804;50.860;6.208;2023-05-07T10:13:08;4.77;;;2.40;;
7525;SDS011;3804;50.860;6.208;2023-05-07T10:15:41;2.73;;;1.60;;
7525;SDS011;3804;50.860;6.208;2023-05-07T10:18:07;4.63;;;2.40;;
7525;SDS011;3804;50.860;6.208;2023-05-07T10:20:35;5.23;;;2.70;;
7525;SDS011;3804;50.860;6.208;2023-05-07T10:23:05;2.57;;;1.83;;
7525;SDS011;3804;50.860;6.208;2023-05-07T10:25:39;2.37;;;1.60;;
7525;SDS011;3804;50.860;6.208;2023-05-07T10:28:15;3.50;;;1.90;;
7525;SDS011;3804;50.860;6.208;2023-05-07T10:30:50;2.83;;;1.87;;
7525;SDS011;3804;50.860;6.208;2023-05-07T10:33:24;3.57;;;2.00;;
7525;SDS011;3804;50.860;6.208;2023-05-07T10:35:55;3.03;;;1.83;;
7525;SDS011;3804;50.860;6.208;2023-05-07T10:38:24;4.53;;;1.80;;
7525;SDS011;3804;50.860;6.208;2023-05-07T10:40:52;3.53;;;1.80;;
7525;SDS011;3804;50.860;6.208;2023-05-07T10:43:19;1.77;;;1.67;;
7525;SDS011;3804;50.860;6.208;2023-05-07T10:46:34;2.43;;;1.83;;
7525;SDS011;3804;50.860;6.208;2023-05-07T10:52:11;3.63;;;2.33;;
7525;SDS011;3804;50.860;6.208;2023-05-07T10:54:45;2.70;;;1.80;;
7525;SDS011;3804;50.860;6.208;2023-05-07T11:03:06;3.27;;;2.30;;
7525;SDS011;3804;50.860;6.208;2023-05-07T11:06:08;3.97;;;2.20;;
7525;SDS011;3804;50.860;6.208;2023-05-07T11:11:36;3.87;;;1.90;;
7525;SDS011;3804;50.860;6.208;2023-05-07T11:14:13;2.90;;;2.20;;
7525;SDS011;3804;50.860;6.208;2023-05-07T11:16:46;3.60;;;2.23;;
7525;SDS011;3804;50.860;6.208;2023-05-07T11:19:47;3.73;;;1.87;;
7525;SDS011;3804;50.860;6.208;2023-05-07T11:22:13;6.50;;;2.30;;
7525;SDS011;3804;50.860;6.208;2023-05-07T11:25:03;3.77;;;2.30;;
7525;SDS011;3804;50.860;6.208;2023-05-07T11:27:30;3.50;;;2.30;;
7525;SDS011;3804;50.860;6.208;2023-05-07T11:29:57;3.93;;;2.20;;
7525;SDS011;3804;50.860;6.208;2023-05-07T11:32:24;4.37;;;1.87;;
7525;SDS011;3804;50.860;6.208;2023-05-07T11:34:54;4.20;;;2.10;;
7525;SDS011;3804;50.860;6.208;2023-05-07T11:37:22;3.50;;;2.10;;
7525;SDS011;3804;50.860;6.208;2023-05-07T11:40:06;3.37;;;1.93;;
7525;SDS011;3804;50.860;6.208;2023-05-07T11:42:37;2.83;;;1.60;;
7525;SDS011;3804;50.860;6.208;2023-05-07T11:45:08;3.23;;;1.50;;
7525;SDS011;3804;50.860;6.208;2023-05-07T11:47:36;2.93;;;1.83;;
7525;SDS011;3804;50.860;6.208;2023-05-07T11:50:05;2.93;;;1.70;;
7525;SDS011;3804;50.860;6.208;2023-05-07T11:52:32;4.17;;;1.90;;
7525;SDS011;3804;50.860;6.208;2023-05-07T11:54:59;2.47;;;1.53;;
7525;SDS011;3804;50.860;6.208;2023-05-07T11:57:27;4.17;;;1.50;;
7525;SDS011;3804;50.860;6.208;2023-05-07T11:59:54;2.60;;;1.50;;
7525;SDS011;3804;50.860;6.208;2023-05-07T12:02:21;2.40;;;1.80;;
7525;SDS011;3804;50.860;6.208;2023-05-07T12:04:47;2.97;;;1.87;;
7525;SDS011;3804;50.860;6.208;2023-05-07T12:07:15;4.57;;;1.90;;
7525;SDS011;3804;50.860;6.208;2023-05-07T12:09:42;3.33;;;2.03;;
7525;SDS011;3804;50.860;6.208;2023-05-07T12:12:09;3.50;;;1.83;;
7525;SDS011;3804;50.860;6.208;2023-05-07T12:14:39;3.47;;;1.87;;
7525;SDS011;3804;50.860;6.208;2023-05-07T12:17:07;3.57;;;1.70;;
7525;SDS011;3804;50.860;6.208;2023-05-07T12:19:38;3.77;;;2.10;;
7525;SDS011;3804;50.860;6.208;2023-05-07T12:22:05;2.93;;;2.07;;
7525;SDS011;3804;50.860;6.208;2023-05-07T12:24:43;2.53;;;2.20;;
7525;SDS011;3804;50.860;6.208;2023-05-07T12:27:10;4.07;;;2.50;;
7525;SDS011;3804;50.860;6.208;2023-05-07T12:29:37;4.67;;;2.33;;
7525;SDS011;3804;50.860;6.208;2023-05-07T12:32:06;2.17;;;1.87;;
7525;SDS011;3804;50.860;6.208;2023-05-07T12:34:33;2.70;;;2.17;;
7525;SDS011;3804;50.860;6.208;2023-05-07T12:37:03;3.40;;;2.37;;
7525;SDS011;3804;50.860;6.208;2023-05-07T12:39:30;2.27;;;1.90;;
7525;SDS011;3804;50.860;6.208;2023-05-07T12:41:59;3.10;;;2.10;;
7525;SDS011;3804;50.860;6.208;2023-05-07T12:44:29;3.40;;;2.03;;
7525;SDS011;3804;50.860;6.208;2023-05-07T12:46:57;4.10;;;2.10;;
7525;SDS011;3804;50.860;6.208;2023-05-07T12:49:24;4.43;;;2.90;;
7525;SDS011;3804;50.860;6.208;2023-05-07T12:51:51;5.83;;;3.10;;
7525;SDS011;3804;50.860;6.208;2023-05-07T12:54:29;4.83;;;3.80;;
7525;SDS011;3804;50.860;6.208;2023-05-07T12:57:03;4.80;;;4.30;;
7525;SDS011;3804;50.860;6.208;2023-05-07T12:59:40;8.30;;;4.60;;
7525;SDS011;3804;50.860;6.208;2023-05-07T13:02:07;7.70;;;5.40;;
7525;SDS011;3804;50.860;6.208;2023-05-07T13:04:36;7.73;;;5.87;;
7525;SDS011;3804;50.860;6.208;2023-05-07T13:07:02;6.33;;;5.50;;
7525;SDS011;3804;50.860;6.208;2023-05-07T13:09:30;8.37;;;5.93;;
7525;SDS011;3804;50.860;6.208;2023-05-07T13:11:57;9.90;;;5.63;;
7525;SDS011;3804;50.860;6.208;2023-05-07T13:14:26;13.17;;;9.03;;
7525;SDS011;3804;50.860;6.208;2023-05-07T13:16:53;6.33;;;5.67;;
7525;SDS011;3804;50.860;6.208;2023-05-07T13:19:20;6.93;;;5.30;;
7525;SDS011;3804;50.860;6.208;2023-05-07T13:21:46;6.47;;;3.97;;
7525;SDS011;3804;50.860;6.208;2023-05-07T13:24:13;8.00;;;4.50;;
7525;SDS011;3804;50.860;6.208;2023-05-07T13:26:40;4.70;;;4.10;;
7525;SDS011;3804;50.860;6.208;2023-05-07T13:29:12;4.80;;;3.83;;
7525;SDS011;3804;50.860;6.208;2023-05-07T13:31:38;6.30;;;4.13;;
7525;SDS011;3804;50.860;6.208;2023-05-07T13:34:09;5.07;;;3.87;;
7525;SDS011;3804;50.860;6.208;2023-05-07T13:36:36;4.33;;;3.80;;
7525;SDS011;3804;50.860;6.208;2023-05-07T13:39:06;4.17;;;3.77;;
7525;SDS011;3804;50.860;6.208;2023-05-07T13:41:33;5.10;;;3.60;;
7525;SDS011;3804;50.860;6.208;2023-05-07T13:43:59;5.53;;;4.00;;
7525;SDS011;3804;50.860;6.208;2023-05-07T13:46:26;5.57;;;3.43;;
7525;SDS011;3804;50.860;6.208;2023-05-07T13:48:53;5.13;;;2.93;;
7525;SDS011;3804;50.860;6.208;2023-05-07T13:51:20;3.30;;;3.00;;
7525;SDS011;3804;50.860;6.208;2023-05-07T13:53:48;4.00;;;3.37;;
7525;SDS011;3804;50.860;6.208;2023-05-07T13:56:15;6.97;;;3.87;;
7525;SDS011;3804;50.860;6.208;2023-05-07T13:58:42;4.27;;;3.43;;
7525;SDS011;3804;50.860;6.208;2023-05-07T14:01:24;4.20;;;3.13;;
7525;SDS011;3804;50.860;6.208;2023-05-07T14:03:51;3.67;;;3.30;;
7525;SDS011;3804;50.860;6.208;2023-05-07T14:06:18;4.47;;;3.30;;
7525;SDS011;3804;50.860;6.208;2023-05-07T14:08:45;3.23;;;2.93;;
7525;SDS011;3804;50.860;6.208;2023-05-07T14:11:12;4.43;;;3.57;;
7525;SDS011;3804;50.860;6.208;2023-05-07T14:13:38;4.10;;;3.30;;
7525;SDS011;3804;50.860;6.208;2023-05-07T14:16:05;3.40;;;3.10;;
7525;SDS011;3804;50.860;6.208;2023-05-07T14:18:32;3.27;;;2.90;;
7525;SDS011;3804;50.860;6.208;2023-05-07T14:21:00;3.03;;;2.70;;
7525;SDS011;3804;50.860;6.208;2023-05-07T14:23:27;2.93;;;2.13;;
7525;SDS011;3804;50.860;6.208;2023-05-07T14:25:54;2.50;;;2.03;;
7525;SDS011;3804;50.860;6.208;2023-05-07T14:28:23;2.67;;;2.40;;
7525;SDS011;3804;50.860;6.208;2023-05-07T14:30:50;3.17;;;2.87;;
7525;SDS011;3804;50.860;6.208;2023-05-07T14:33:17;2.63;;;2.30;;
7525;SDS011;3804;50.860;6.208;2023-05-07T14:35:43;2.90;;;1.90;;
7525;SDS011;3804;50.860;6.208;2023-05-07T14:38:15;3.07;;;2.70;;
7525;SDS011;3804;50.860;6.208;2023-05-07T14:40:42;3.43;;;2.67;;
7525;SDS011;3804;50.860;6.208;2023-05-07T14:43:09;3.73;;;3.00;;
7525;SDS011;3804;50.860;6.208;2023-05-07T14:45:35;3.67;;;3.00;;
7525;SDS011;3804;50.860;6.208;2023-05-07T14:48:03;2.90;;;2.70;;
7525;SDS011;3804;50.860;6.208;2023-05-07T14:50:30;3.93;;;3.13;;
7525;SDS011;3804;50.860;6.208;2023-05-07T14:52:56;3.20;;;3.00;;
7525;SDS011;3804;50.860;6.208;2023-05-07T14:55:23;4.60;;;3.33;;
7525;SDS011;3804;50.860;6.208;2023-05-07T14:57:50;5.60;;;3.40;;
7525;SDS011;3804;50.860;6.208;2023-05-07T15:00:17;4.03;;;3.20;;
7525;SDS011;3804;50.860;6.208;2023-05-07T15:02:44;5.30;;;3.70;;
7525;SDS011;3804;50.860;6.208;2023-05-07T15:05:11;4.47;;;3.00;;
7525;SDS011;3804;50.860;6.208;2023-05-07T15:07:38;3.47;;;3.17;;
7525;SDS011;3804;50.860;6.208;2023-05-07T15:10:05;5.03;;;3.20;;
7525;SDS011;3804;50.860;6.208;2023-05-07T15:12:32;4.77;;;2.60;;
7525;SDS011;3804;50.860;6.208;2023-05-07T15:14:59;4.60;;;3.10;;
7525;SDS011;3804;50.860;6.208;2023-05-07T15:17:26;3.20;;;2.67;;
7525;SDS011;3804;50.860;6.208;2023-05-07T15:19:52;3.93;;;2.70;;
7525;SDS011;3804;50.860;6.208;2023-05-07T15:22:20;6.47;;;3.03;;
7525;SDS011;3804;50.860;6.208;2023-05-07T15:24:48;3.53;;;3.00;;
7525;SDS011;3804;50.860;6.208;2023-05-07T15:27:15;2.70;;;2.50;;
7525;SDS011;3804;50.860;6.208;2023-05-07T15:29:43;3.80;;;2.83;;
7525;SDS011;3804;50.860;6.208;2023-05-07T15:32:10;5.43;;;2.63;;